sensor_id;sensor_type;location;lat;lon;timestamp;P1;durP1;ratioP1;P2;durP2;ratioP2
59474;SDS011;45288;51.136;16.928;2022-08-01T00:02:03;3.83;;;3.42;;
59474;SDS011;45288;51.136;16.928;2022-08-01T00:04:28;3.63;;;3.20;;
59474;SDS011;45288;51.136;16.928;2022-08-01T00:06:54;3.60;;;3.17;;
59474;SDS011;45288;51.136;16.928;2022-08-01T00:09:20;4.28;;;3.47;;
59474;SDS011;45288;51.136;16.928;2022-08-01T00:11:45;7.33;;;3.23;;
59474;SDS011;45288;51.136;16.928;2022-08-01T00:14:11;4.80;;;3.28;;
59474;SDS011;45288;51.136;16.928;2022-08-01T00:16:36;4.28;;;3.20;;
59474;SDS011;45288;51.136;16.928;2022-08-01T00:19:03;3.60;;;3.22;;
59474;SDS011;45288;51.136;16.928;2022-08-01T00:21:28;4.63;;;3.10;;
59474;SDS011;45288;51.136;16.928;2022-08-01T00:23:55;3.72;;;3.17;;
59474;SDS011;45288;51.136;16.928;2022-08-01T00:26:20;4.85;;;3.13;;
59474;SDS011;45288;51.136;16.928;2022-08-01T00:28:46;4.22;;;3.20;;
59474;SDS011;45288;51.136;16.928;2022-08-01T00:31:11;3.53;;;3.00;;
59474;SDS011;45288;51.136;16.928;2022-08-01T00:33:37;3.30;;;3.00;;
59474;SDS011;45288;51.136;16.928;2022-08-01T00:36:03;3.80;;;3.03;;
59474;SDS011;45288;51.136;16.928;2022-08-01T00:38:30;3.50;;;3.20;;
59474;SDS011;45288;51.136;16.928;2022-08-01T00:40:55;3.58;;;3.20;;
59474;SDS011;45288;51.136;16.928;2022-08-01T00:43:21;5.60;;;3.27;;
59474;SDS011;45288;51.136;16.928;2022-08-01T00:45:47;4.65;;;3.10;;
59474;SDS011;45288;51.136;16.928;2022-08-01T00:48:12;4.32;;;3.05;;
59474;SDS011;45288;51.136;16.928;2022-08-01T00:50:38;3.87;;;3.20;;
59474;SDS011;45288;51.136;16.928;2022-08-01T00:53:04;3.28;;;2.97;;
59474;SDS011;45288;51.136;16.928;2022-08-01T00:55:30;3.42;;;3.05;;
59474;SDS011;45288;51.136;16.928;2022-08-01T00:57:56;4.57;;;3.10;;
59474;SDS011;45288;51.136;16.928;2022-08-01T01:00:22;3.67;;;3.10;;
59474;SDS011;45288;51.136;16.928;2022-08-01T01:02:48;4.00;;;3.28;;
59474;SDS011;45288;51.136;16.928;2022-08-01T01:05:15;4.30;;;3.20;;
59474;SDS011;45288;51.136;16.928;2022-08-01T01:07:46;5.00;;;3.50;;
59474;SDS011;45288;51.136;16.928;2022-08-01T01:10:17;4.00;;;3.22;;
59474;SDS011;45288;51.136;16.928;2022-08-01T01:12:47;3.75;;;3.15;;
59474;SDS011;45288;51.136;16.928;2022-08-01T01:15:18;4.45;;;3.22;;
59474;SDS011;45288;51.136;16.928;2022-08-01T01:17:57;5.07;;;3.33;;
59474;SDS011;45288;51.136;16.928;2022-08-01T01:20:27;3.47;;;3.05;;
59474;SDS011;45288;51.136;16.928;2022-08-01T01:27:50;4.68;;;3.47;;
59474;SDS011;45288;51.136;16.928;2022-08-01T01:30:16;4.05;;;3.30;;
59474;SDS011;45288;51.136;16.928;2022-08-01T01:32:43;3.60;;;3.30;;
59474;SDS011;45288;51.136;16.928;2022-08-01T01:35:10;4.22;;;3.42;;
59474;SDS011;45288;51.136;16.928;2022-08-01T01:37:38;4.13;;;3.40;;
59474;SDS011;45288;51.136;16.928;2022-08-01T01:40:05;4.20;;;3.47;;
59474;SDS011;45288;51.136;16.928;2022-08-01T01:42:32;4.70;;;3.40;;
59474;SDS011;45288;51.136;16.928;2022-08-01T01:44:58;4.68;;;3.40;;
59474;SDS011;45288;51.136;16.928;2022-08-01T01:47:25;4.63;;;3.22;;
59474;SDS011;45288;51.136;16.928;2022-08-01T01:49:53;5.72;;;3.33;;
59474;SDS011;45288;51.136;16.928;2022-08-01T01:52:20;4.07;;;3.28;;
59474;SDS011;45288;51.136;16.928;2022-08-01T01:54:46;3.75;;;3.42;;
59474;SDS011;45288;51.136;16.928;2022-08-01T01:57:13;3.20;;;2.90;;
59474;SDS011;45288;51.136;16.928;2022-08-01T01:59:40;4.97;;;3.40;;
59474;SDS011;45288;51.136;16.928;2022-08-01T02:02:06;5.70;;;3.42;;
59474;SDS011;45288;51.136;16.928;2022-08-01T02:04:35;5.03;;;3.30;;
59474;SDS011;45288;51.136;16.928;2022-08-01T02:07:01;4.85;;;3.20;;
59474;SDS011;45288;51.136;16.928;2022-08-01T02:09:28;4.00;;;3.53;;
59474;SDS011;45288;51.136;16.928;2022-08-01T02:11:54;4.00;;;3.38;;
59474;SDS011;45288;51.136;16.928;2022-08-01T02:14:20;4.88;;;3.42;;
59474;SDS011;45288;51.136;16.928;2022-08-01T02:16:48;3.92;;;3.45;;
59474;SDS011;45288;51.136;16.928;2022-08-01T02:19:14;6.22;;;3.55;;
59474;SDS011;45288;51.136;16.928;2022-08-01T02:21:40;5.27;;;3.60;;
59474;SDS011;45288;51.136;16.928;2022-08-01T02:24:17;3.70;;;3.30;;
59474;SDS011;45288;51.136;16.928;2022-08-01T02:26:46;4.78;;;3.53;;
59474;SDS011;45288;51.136;16.928;2022-08-01T02:29:17;4.30;;;3.35;;
59474;SDS011;45288;51.136;16.928;2022-08-01T02:31:45;3.83;;;3.30;;
59474;SDS011;45288;51.136;16.928;2022-08-01T02:34:13;4.38;;;3.67;;
59474;SDS011;45288;51.136;16.928;2022-08-01T02:36:41;4.13;;;3.25;;
59474;SDS011;45288;51.136;16.928;2022-08-01T02:39:09;5.78;;;3.30;;
59474;SDS011;45288;51.136;16.928;2022-08-01T02:41:36;3.80;;;3.40;;
59474;SDS011;45288;51.136;16.928;2022-08-01T02:44:04;4.23;;;3.50;;
59474;SDS011;45288;51.136;16.928;2022-08-01T02:46:35;4.30;;;3.58;;
59474;SDS011;45288;51.136;16.928;2022-08-01T02:49:02;4.30;;;3.55;;
59474;SDS011;45288;51.136;16.928;2022-08-01T02:51:28;3.90;;;3.50;;
59474;SDS011;45288;51.136;16.928;2022-08-01T02:53:55;4.22;;;3.83;;
59474;SDS011;45288;51.136;16.928;2022-08-01T02:56:21;4.80;;;3.78;;
59474;SDS011;45288;51.136;16.928;2022-08-01T02:58:48;5.28;;;4.07;;
59474;SDS011;45288;51.136;16.928;2022-08-01T03:01:15;6.47;;;4.53;;
59474;SDS011;45288;51.136;16.928;2022-08-01T03:03:42;6.10;;;4.00;;
59474;SDS011;45288;51.136;16.928;2022-08-01T03:06:08;4.85;;;4.07;;
59474;SDS011;45288;51.136;16.928;2022-08-01T03:08:34;4.50;;;4.10;;
59474;SDS011;45288;51.136;16.928;2022-08-01T03:11:00;5.15;;;4.00;;
59474;SDS011;45288;51.136;16.928;2022-08-01T03:13:26;5.22;;;3.80;;
59474;SDS011;45288;51.136;16.928;2022-08-01T03:15:53;5.57;;;4.00;;
59474;SDS011;45288;51.136;16.928;2022-08-01T03:18:20;5.10;;;4.03;;
59474;SDS011;45288;51.136;16.928;2022-08-01T03:20:48;4.85;;;3.90;;
59474;SDS011;45288;51.136;16.928;2022-08-01T03:23:14;4.67;;;4.23;;
59474;SDS011;45288;51.136;16.928;2022-08-01T03:25:40;4.30;;;3.90;;
59474;SDS011;45288;51.136;16.928;2022-08-01T03:28:07;4.53;;;4.00;;
59474;SDS011;45288;51.136;16.928;2022-08-01T03:30:33;5.72;;;4.30;;
59474;SDS011;45288;51.136;16.928;2022-08-01T03:33:01;5.20;;;4.40;;
59474;SDS011;45288;51.136;16.928;2022-08-01T03:35:28;7.72;;;4.40;;
59474;SDS011;45288;51.136;16.928;2022-08-01T03:37:55;7.03;;;4.50;;
59474;SDS011;45288;51.136;16.928;2022-08-01T03:41:05;5.70;;;4.30;;
59474;SDS011;45288;51.136;16.928;2022-08-01T03:43:26;6.00;;;5.05;;
59474;SDS011;45288;51.136;16.928;2022-08-01T03:45:55;6.40;;;5.07;;
59474;SDS011;45288;51.136;16.928;2022-08-01T03:48:27;6.00;;;5.05;;
59474;SDS011;45288;51.136;16.928;2022-08-01T03:50:53;7.80;;;5.13;;
59474;SDS011;45288;51.136;16.928;2022-08-01T03:53:20;11.65;;;5.20;;
59474;SDS011;45288;51.136;16.928;2022-08-01T03:55:47;7.10;;;5.35;;
59474;SDS011;45288;51.136;16.928;2022-08-01T03:58:13;10.27;;;5.10;;
59474;SDS011;45288;51.136;16.928;2022-08-01T04:00:39;6.82;;;5.13;;
59474;SDS011;45288;51.136;16.928;2022-08-01T04:03:08;6.70;;;4.93;;
59474;SDS011;45288;51.136;16.928;2022-08-01T04:05:34;5.33;;;4.80;;
59474;SDS011;45288;51.136;16.928;2022-08-01T04:08:00;8.60;;;5.03;;
59474;SDS011;45288;51.136;16.928;2022-08-01T04:10:28;6.05;;;4.90;;
59474;SDS011;45288;51.136;16.928;2022-08-01T04:12:54;9.30;;;5.00;;
59474;SDS011;45288;51.136;16.928;2022-08-01T04:15:20;9.07;;;5.18;;
59474;SDS011;45288;51.136;16.928;2022-08-01T04:17:46;7.85;;;5.13;;
59474;SDS011;45288;51.136;16.928;2022-08-01T04:20:12;5.47;;;4.78;;
59474;SDS011;45288;51.136;16.928;2022-08-01T04:22:38;5.88;;;4.78;;
59474;SDS011;45288;51.136;16.928;2022-08-01T04:25:04;8.98;;;5.72;;
59474;SDS011;45288;51.136;16.928;2022-08-01T04:27:32;6.97;;;5.10;;
59474;SDS011;45288;51.136;16.928;2022-08-01T04:30:01;7.83;;;5.30;;
59474;SDS011;45288;51.136;16.928;2022-08-01T04:32:28;6.07;;;5.30;;
59474;SDS011;45288;51.136;16.928;2022-08-01T04:34:55;8.70;;;5.70;;
59474;SDS011;45288;51.136;16.928;2022-08-01T04:37:22;6.35;;;5.40;;
59474;SDS011;45288;51.136;16.928;2022-08-01T04:39:48;7.78;;;5.70;;
59474;SDS011;45288;51.136;16.928;2022-08-01T04:42:16;9.25;;;5.88;;
59474;SDS011;45288;51.136;16.928;2022-08-01T04:44:42;7.07;;;5.50;;
59474;SDS011;45288;51.136;16.928;2022-08-01T04:47:08;7.18;;;5.40;;
59474;SDS011;45288;51.136;16.928;2022-08-01T04:49:34;7.63;;;5.23;;
59474;SDS011;45288;51.136;16.928;2022-08-01T04:52:00;6.40;;;5.05;;
59474;SDS011;45288;51.136;16.928;2022-08-01T04:54:29;6.47;;;5.60;;
59474;SDS011;45288;51.136;16.928;2022-08-01T04:56:55;7.90;;;5.43;;
59474;SDS011;45288;51.136;16.928;2022-08-01T04:59:34;6.25;;;5.47;;
59474;SDS011;45288;51.136;16.928;2022-08-01T05:04:36;6.53;;;5.70;;
59474;SDS011;45288;51.136;16.928;2022-08-01T05:07:02;8.07;;;5.70;;
59474;SDS011;45288;51.136;16.928;2022-08-01T05:09:28;7.35;;;5.43;;
59474;SDS011;45288;51.136;16.928;2022-08-01T05:11:54;6.33;;;5.40;;
59474;SDS011;45288;51.136;16.928;2022-08-01T05:14:19;8.35;;;5.72;;
59474;SDS011;45288;51.136;16.928;2022-08-01T05:16:46;7.70;;;6.03;;
59474;SDS011;45288;51.136;16.928;2022-08-01T05:19:12;7.10;;;5.90;;
59474;SDS011;45288;51.136;16.928;2022-08-01T05:21:37;7.50;;;6.13;;
59474;SDS011;45288;51.136;16.928;2022-08-01T05:24:04;7.22;;;5.53;;
59474;SDS011;45288;51.136;16.928;2022-08-01T05:26:30;7.68;;;6.10;;
59474;SDS011;45288;51.136;16.928;2022-08-01T05:28:55;7.43;;;6.10;;
59474;SDS011;45288;51.136;16.928;2022-08-01T05:31:21;6.50;;;5.80;;
59474;SDS011;45288;51.136;16.928;2022-08-01T05:33:46;7.15;;;5.80;;
59474;SDS011;45288;51.136;16.928;2022-08-01T05:36:12;7.15;;;6.00;;
59474;SDS011;45288;51.136;16.928;2022-08-01T05:38:38;7.33;;;6.37;;
59474;SDS011;45288;51.136;16.928;2022-08-01T05:41:04;7.25;;;5.95;;
59474;SDS011;45288;51.136;16.928;2022-08-01T05:43:29;8.23;;;6.23;;
59474;SDS011;45288;51.136;16.928;2022-08-01T05:45:55;7.65;;;6.22;;
59474;SDS011;45288;51.136;16.928;2022-08-01T05:48:21;8.73;;;6.30;;
59474;SDS011;45288;51.136;16.928;2022-08-01T05:50:47;8.60;;;6.10;;
59474;SDS011;45288;51.136;16.928;2022-08-01T05:53:13;9.15;;;6.30;;
59474;SDS011;45288;51.136;16.928;2022-08-01T05:55:39;7.97;;;6.40;;
59474;SDS011;45288;51.136;16.928;2022-08-01T05:58:04;7.55;;;6.47;;
59474;SDS011;45288;51.136;16.928;2022-08-01T06:00:30;8.75;;;6.70;;
59474;SDS011;45288;51.136;16.928;2022-08-01T06:02:56;6.80;;;6.20;;
59474;SDS011;45288;51.136;16.928;2022-08-01T06:05:22;6.60;;;5.90;;
59474;SDS011;45288;51.136;16.928;2022-08-01T06:07:47;8.07;;;6.17;;
59474;SDS011;45288;51.136;16.928;2022-08-01T06:10:13;8.32;;;6.22;;
59474;SDS011;45288;51.136;16.928;2022-08-01T06:12:39;7.73;;;5.90;;
59474;SDS011;45288;51.136;16.928;2022-08-01T06:15:05;8.65;;;6.13;;
59474;SDS011;45288;51.136;16.928;2022-08-01T06:17:33;9.15;;;5.88;;
59474;SDS011;45288;51.136;16.928;2022-08-01T06:19:58;6.65;;;5.70;;
59474;SDS011;45288;51.136;16.928;2022-08-01T06:22:25;7.20;;;5.57;;
59474;SDS011;45288;51.136;16.928;2022-08-01T06:24:51;7.30;;;5.80;;
59474;SDS011;45288;51.136;16.928;2022-08-01T06:27:16;8.95;;;5.80;;
59474;SDS011;45288;51.136;16.928;2022-08-01T06:29:42;6.50;;;5.90;;
59474;SDS011;45288;51.136;16.928;2022-08-01T06:32:08;6.88;;;5.20;;
59474;SDS011;45288;51.136;16.928;2022-08-01T06:34:35;7.95;;;5.60;;
59474;SDS011;45288;51.136;16.928;2022-08-01T06:37:00;10.75;;;6.22;;
59474;SDS011;45288;51.136;16.928;2022-08-01T06:39:26;7.27;;;6.13;;
59474;SDS011;45288;51.136;16.928;2022-08-01T06:41:52;6.80;;;5.67;;
59474;SDS011;45288;51.136;16.928;2022-08-01T06:44:17;6.50;;;5.30;;
59474;SDS011;45288;51.136;16.928;2022-08-01T06:46:43;8.77;;;5.45;;
59474;SDS011;45288;51.136;16.928;2022-08-01T06:49:08;6.57;;;5.87;;
59474;SDS011;45288;51.136;16.928;2022-08-01T06:51:34;6.10;;;5.07;;
59474;SDS011;45288;51.136;16.928;2022-08-01T06:54:00;5.63;;;5.03;;
59474;SDS011;45288;51.136;16.928;2022-08-01T06:56:25;6.00;;;5.27;;
59474;SDS011;45288;51.136;16.928;2022-08-01T06:58:51;5.22;;;4.65;;
59474;SDS011;45288;51.136;16.928;2022-08-01T07:01:17;7.38;;;4.80;;
59474;SDS011;45288;51.136;16.928;2022-08-01T07:03:43;6.17;;;4.40;;
59474;SDS011;45288;51.136;16.928;2022-08-01T07:06:08;5.90;;;4.47;;
59474;SDS011;45288;51.136;16.928;2022-08-01T07:08:34;5.20;;;4.35;;
59474;SDS011;45288;51.136;16.928;2022-08-01T07:11:00;5.18;;;4.30;;
59474;SDS011;45288;51.136;16.928;2022-08-01T07:13:27;4.10;;;3.60;;
59474;SDS011;45288;51.136;16.928;2022-08-01T07:15:52;6.03;;;4.03;;
59474;SDS011;45288;51.136;16.928;2022-08-01T07:18:18;5.30;;;4.00;;
59474;SDS011;45288;51.136;16.928;2022-08-01T07:20:44;4.93;;;4.13;;
59474;SDS011;45288;51.136;16.928;2022-08-01T07:23:11;4.45;;;3.90;;
59474;SDS011;45288;51.136;16.928;2022-08-01T07:25:37;5.75;;;4.35;;
59474;SDS011;45288;51.136;16.928;2022-08-01T07:28:03;4.80;;;4.10;;
59474;SDS011;45288;51.136;16.928;2022-08-01T07:30:29;4.97;;;4.15;;
59474;SDS011;45288;51.136;16.928;2022-08-01T07:32:54;4.93;;;4.07;;
59474;SDS011;45288;51.136;16.928;2022-08-01T07:35:20;5.70;;;4.03;;
59474;SDS011;45288;51.136;16.928;2022-08-01T07:37:46;4.20;;;3.80;;
59474;SDS011;45288;51.136;16.928;2022-08-01T07:40:11;5.00;;;3.92;;
59474;SDS011;45288;51.136;16.928;2022-08-01T07:42:37;5.83;;;3.90;;
59474;SDS011;45288;51.136;16.928;2022-08-01T07:45:03;5.80;;;4.40;;
59474;SDS011;45288;51.136;16.928;2022-08-01T07:47:29;5.20;;;4.00;;
59474;SDS011;45288;51.136;16.928;2022-08-01T07:50:01;5.93;;;3.73;;
59474;SDS011;45288;51.136;16.928;2022-08-01T07:52:27;4.13;;;3.73;;
59474;SDS011;45288;51.136;16.928;2022-08-01T07:54:52;4.75;;;3.90;;
59474;SDS011;45288;51.136;16.928;2022-08-01T07:57:18;5.43;;;4.20;;
59474;SDS011;45288;51.136;16.928;2022-08-01T07:59:44;5.32;;;4.13;;
59474;SDS011;45288;51.136;16.928;2022-08-01T08:02:10;6.00;;;3.83;;
59474;SDS011;45288;51.136;16.928;2022-08-01T08:04:35;5.77;;;4.10;;
59474;SDS011;45288;51.136;16.928;2022-08-01T08:07:01;4.65;;;3.92;;
59474;SDS011;45288;51.136;16.928;2022-08-01T08:09:27;4.40;;;4.00;;
59474;SDS011;45288;51.136;16.928;2022-08-01T08:11:52;5.13;;;3.90;;
59474;SDS011;45288;51.136;16.928;2022-08-01T08:14:18;4.97;;;4.03;;
59474;SDS011;45288;51.136;16.928;2022-08-01T08:16:44;4.80;;;4.10;;
59474;SDS011;45288;51.136;16.928;2022-08-01T08:19:10;4.90;;;4.17;;
59474;SDS011;45288;51.136;16.928;2022-08-01T08:21:36;4.53;;;3.90;;
59474;SDS011;45288;51.136;16.928;2022-08-01T08:24:03;4.40;;;4.00;;
59474;SDS011;45288;51.136;16.928;2022-08-01T08:26:47;6.80;;;4.10;;
59474;SDS011;45288;51.136;16.928;2022-08-01T08:29:13;4.57;;;4.18;;
59474;SDS011;45288;51.136;16.928;2022-08-01T08:31:39;5.40;;;4.28;;
59474;SDS011;45288;51.136;16.928;2022-08-01T08:34:05;4.65;;;4.20;;
59474;SDS011;45288;51.136;16.928;2022-08-01T08:36:30;5.15;;;4.10;;
59474;SDS011;45288;51.136;16.928;2022-08-01T08:38:56;5.87;;;4.07;;
59474;SDS011;45288;51.136;16.928;2022-08-01T08:41:22;6.25;;;4.50;;
59474;SDS011;45288;51.136;16.928;2022-08-01T08:43:48;5.32;;;4.18;;
59474;SDS011;45288;51.136;16.928;2022-08-01T08:46:14;5.78;;;4.15;;
59474;SDS011;45288;51.136;16.928;2022-08-01T08:48:40;6.55;;;4.10;;
59474;SDS011;45288;51.136;16.928;2022-08-01T08:51:06;5.90;;;4.25;;
59474;SDS011;45288;51.136;16.928;2022-08-01T08:53:34;5.45;;;3.90;;
59474;SDS011;45288;51.136;16.928;2022-08-01T08:56:01;5.63;;;4.53;;
59474;SDS011;45288;51.136;16.928;2022-08-01T08:58:27;5.90;;;4.63;;
59474;SDS011;45288;51.136;16.928;2022-08-01T09:00:54;5.28;;;4.43;;
59474;SDS011;45288;51.136;16.928;2022-08-01T09:03:20;4.85;;;4.35;;
59474;SDS011;45288;51.136;16.928;2022-08-01T09:05:46;5.13;;;4.32;;
59474;SDS011;45288;51.136;16.928;2022-08-01T09:08:11;5.80;;;4.20;;
59474;SDS011;45288;51.136;16.928;2022-08-01T09:10:37;4.25;;;3.85;;
59474;SDS011;45288;51.136;16.928;2022-08-01T09:15:42;5.60;;;4.20;;
59474;SDS011;45288;51.136;16.928;2022-08-01T09:18:09;4.50;;;4.10;;
59474;SDS011;45288;51.136;16.928;2022-08-01T09:20:50;4.45;;;4.05;;
59474;SDS011;45288;51.136;16.928;2022-08-01T09:23:31;4.83;;;4.33;;
59474;SDS011;45288;51.136;16.928;2022-08-01T09:25:58;7.15;;;4.47;;
59474;SDS011;45288;51.136;16.928;2022-08-01T09:28:30;5.10;;;4.60;;
59474;SDS011;45288;51.136;16.928;2022-08-01T09:30:56;6.22;;;4.35;;
59474;SDS011;45288;51.136;16.928;2022-08-01T09:33:22;4.30;;;3.90;;
59474;SDS011;45288;51.136;16.928;2022-08-01T09:35:55;4.40;;;4.00;;
59474;SDS011;45288;51.136;16.928;2022-08-01T09:38:25;4.82;;;4.00;;
59474;SDS011;45288;51.136;16.928;2022-08-01T09:40:55;5.65;;;4.20;;
59474;SDS011;45288;51.136;16.928;2022-08-01T09:43:22;5.20;;;4.47;;
59474;SDS011;45288;51.136;16.928;2022-08-01T09:45:48;5.13;;;4.43;;
59474;SDS011;45288;51.136;16.928;2022-08-01T09:48:14;4.70;;;3.97;;
59474;SDS011;45288;51.136;16.928;2022-08-01T09:50:44;4.40;;;4.00;;
59474;SDS011;45288;51.136;16.928;2022-08-01T09:53:10;4.43;;;4.03;;
59474;SDS011;45288;51.136;16.928;2022-08-01T09:55:37;4.80;;;4.07;;
59474;SDS011;45288;51.136;16.928;2022-08-01T09:58:02;4.18;;;3.78;;
59474;SDS011;45288;51.136;16.928;2022-08-01T10:00:30;4.72;;;3.70;;
59474;SDS011;45288;51.136;16.928;2022-08-01T10:02:55;4.30;;;3.90;;
59474;SDS011;45288;51.136;16.928;2022-08-01T10:05:31;4.70;;;4.20;;
59474;SDS011;45288;51.136;16.928;2022-08-01T10:07:58;5.40;;;3.80;;
59474;SDS011;45288;51.136;16.928;2022-08-01T10:10:24;5.53;;;3.78;;
59474;SDS011;45288;51.136;16.928;2022-08-01T10:12:51;4.10;;;3.70;;
59474;SDS011;45288;51.136;16.928;2022-08-01T10:15:17;4.35;;;3.92;;
59474;SDS011;45288;51.136;16.928;2022-08-01T10:17:46;4.38;;;3.60;;
59474;SDS011;45288;51.136;16.928;2022-08-01T10:20:12;4.05;;;3.75;;
59474;SDS011;45288;51.136;16.928;2022-08-01T10:22:38;4.15;;;3.55;;
59474;SDS011;45288;51.136;16.928;2022-08-01T10:25:04;5.15;;;4.00;;
59474;SDS011;45288;51.136;16.928;2022-08-01T10:27:32;5.25;;;4.10;;
59474;SDS011;45288;51.136;16.928;2022-08-01T10:29:59;4.82;;;4.00;;
59474;SDS011;45288;51.136;16.928;2022-08-01T10:32:35;5.03;;;4.10;;
59474;SDS011;45288;51.136;16.928;2022-08-01T10:35:01;4.40;;;4.00;;
59474;SDS011;45288;51.136;16.928;2022-08-01T10:37:27;4.35;;;3.88;;
59474;SDS011;45288;51.136;16.928;2022-08-01T10:39:53;4.97;;;3.93;;
59474;SDS011;45288;51.136;16.928;2022-08-01T10:42:18;4.38;;;3.97;;
59474;SDS011;45288;51.136;16.928;2022-08-01T10:44:44;4.53;;;4.13;;
59474;SDS011;45288;51.136;16.928;2022-08-01T10:47:15;4.40;;;4.00;;
59474;SDS011;45288;51.136;16.928;2022-08-01T10:49:53;4.72;;;4.15;;
59474;SDS011;45288;51.136;16.928;2022-08-01T10:52:22;4.90;;;4.20;;
59474;SDS011;45288;51.136;16.928;2022-08-01T10:54:47;4.45;;;4.07;;
59474;SDS011;45288;51.136;16.928;2022-08-01T10:57:13;4.60;;;3.93;;
59474;SDS011;45288;51.136;16.928;2022-08-01T10:59:49;4.50;;;4.10;;
59474;SDS011;45288;51.136;16.928;2022-08-01T11:02:56;4.80;;;4.30;;
59474;SDS011;45288;51.136;16.928;2022-08-01T11:05:09;4.40;;;4.00;;
59474;SDS011;45288;51.136;16.928;2022-08-01T11:10:04;4.68;;;4.22;;
59474;SDS011;45288;51.136;16.928;2022-08-01T11:12:39;4.70;;;4.30;;
59474;SDS011;45288;51.136;16.928;2022-08-01T11:17:51;4.90;;;4.18;;
59474;SDS011;45288;51.136;16.928;2022-08-01T11:20:17;4.85;;;4.45;;
59474;SDS011;45288;51.136;16.928;2022-08-01T11:25:25;5.57;;;4.97;;
59474;SDS011;45288;51.136;16.928;2022-08-01T11:33:16;4.80;;;4.00;;
59474;SDS011;45288;51.136;16.928;2022-08-01T11:36:16;4.45;;;4.05;;
59474;SDS011;45288;51.136;16.928;2022-08-01T11:38:42;4.40;;;4.00;;
59474;SDS011;45288;51.136;16.928;2022-08-01T11:41:30;4.30;;;3.90;;
59474;SDS011;45288;51.136;16.928;2022-08-01T11:51:57;4.10;;;3.70;;
59474;SDS011;45288;51.136;16.928;2022-08-01T11:54:27;4.97;;;4.00;;
59474;SDS011;45288;51.136;16.928;2022-08-01T11:56:57;3.95;;;3.65;;
59474;SDS011;45288;51.136;16.928;2022-08-01T11:59:22;4.27;;;3.87;;
59474;SDS011;45288;51.136;16.928;2022-08-01T12:01:49;4.60;;;4.03;;
59474;SDS011;45288;51.136;16.928;2022-08-01T12:04:14;4.13;;;3.60;;
59474;SDS011;45288;51.136;16.928;2022-08-01T12:06:40;4.35;;;3.80;;
59474;SDS011;45288;51.136;16.928;2022-08-01T12:09:18;4.32;;;3.92;;
59474;SDS011;45288;51.136;16.928;2022-08-01T12:11:45;5.53;;;4.20;;
59474;SDS011;45288;51.136;16.928;2022-08-01T12:14:15;4.47;;;4.07;;
59474;SDS011;45288;51.136;16.928;2022-08-01T12:16:47;4.20;;;3.88;;
59474;SDS011;45288;51.136;16.928;2022-08-01T12:19:17;5.17;;;4.17;;
59474;SDS011;45288;51.136;16.928;2022-08-01T12:21:43;4.15;;;3.75;;
59474;SDS011;45288;51.136;16.928;2022-08-01T12:24:09;4.70;;;4.13;;
59474;SDS011;45288;51.136;16.928;2022-08-01T12:26:39;4.38;;;3.90;;
59474;SDS011;45288;51.136;16.928;2022-08-01T12:29:05;4.10;;;3.70;;
59474;SDS011;45288;51.136;16.928;2022-08-01T12:31:31;4.27;;;3.87;;
59474;SDS011;45288;51.136;16.928;2022-08-01T12:33:58;4.80;;;3.83;;
59474;SDS011;45288;51.136;16.928;2022-08-01T12:36:27;4.03;;;3.67;;
59474;SDS011;45288;51.136;16.928;2022-08-01T12:38:53;4.15;;;3.70;;
59474;SDS011;45288;51.136;16.928;2022-08-01T12:41:19;4.18;;;3.70;;
59474;SDS011;45288;51.136;16.928;2022-08-01T12:43:45;4.07;;;3.75;;
59474;SDS011;45288;51.136;16.928;2022-08-01T12:46:12;4.85;;;3.50;;
59474;SDS011;45288;51.136;16.928;2022-08-01T12:48:41;4.55;;;3.92;;
59474;SDS011;45288;51.136;16.928;2022-08-01T12:51:06;4.30;;;3.90;;
59474;SDS011;45288;51.136;16.928;2022-08-01T12:53:34;4.45;;;4.05;;
59474;SDS011;45288;51.136;16.928;2022-08-01T12:56:00;5.20;;;3.92;;
59474;SDS011;45288;51.136;16.928;2022-08-01T12:58:33;4.47;;;4.07;;
59474;SDS011;45288;51.136;16.928;2022-08-01T13:01:03;4.82;;;4.10;;
59474;SDS011;45288;51.136;16.928;2022-08-01T13:03:29;4.50;;;4.10;;
59474;SDS011;45288;51.136;16.928;2022-08-01T13:05:56;4.40;;;4.00;;
59474;SDS011;45288;51.136;16.928;2022-08-01T13:08:29;4.40;;;4.10;;
59474;SDS011;45288;51.136;16.928;2022-08-01T13:13:36;4.38;;;3.97;;
59474;SDS011;45288;51.136;16.928;2022-08-01T13:16:03;4.40;;;4.00;;
59474;SDS011;45288;51.136;16.928;2022-08-01T13:18:30;4.07;;;3.70;;
59474;SDS011;45288;51.136;16.928;2022-08-01T13:24:02;4.80;;;4.40;;
59474;SDS011;45288;51.136;16.928;2022-08-01T13:26:47;4.70;;;4.30;;
59474;SDS011;45288;51.136;16.928;2022-08-01T13:29:14;4.30;;;3.90;;
59474;SDS011;45288;51.136;16.928;2022-08-01T13:31:40;4.10;;;3.80;;
59474;SDS011;45288;51.136;16.928;2022-08-01T13:34:05;3.63;;;3.33;;
59474;SDS011;45288;51.136;16.928;2022-08-01T13:36:31;3.47;;;3.17;;
59474;SDS011;45288;51.136;16.928;2022-08-01T13:38:58;3.10;;;2.90;;
59474;SDS011;45288;51.136;16.928;2022-08-01T13:41:42;3.00;;;2.80;;
59474;SDS011;45288;51.136;16.928;2022-08-01T13:44:08;2.90;;;2.70;;
59474;SDS011;45288;51.136;16.928;2022-08-01T13:46:38;2.90;;;2.60;;
59474;SDS011;45288;51.136;16.928;2022-08-01T13:49:05;3.08;;;2.88;;
59474;SDS011;45288;51.136;16.928;2022-08-01T13:51:31;3.30;;;3.00;;
59474;SDS011;45288;51.136;16.928;2022-08-01T13:53:57;3.50;;;3.20;;
59474;SDS011;45288;51.136;16.928;2022-08-01T13:56:23;3.53;;;3.20;;
59474;SDS011;45288;51.136;16.928;2022-08-01T13:58:49;4.07;;;3.78;;
59474;SDS011;45288;51.136;16.928;2022-08-01T14:01:15;5.00;;;3.85;;
59474;SDS011;45288;51.136;16.928;2022-08-01T14:03:40;4.30;;;3.90;;
59474;SDS011;45288;51.136;16.928;2022-08-01T14:06:06;3.60;;;3.30;;
59474;SDS011;45288;51.136;16.928;2022-08-01T14:08:32;3.80;;;3.50;;
59474;SDS011;45288;51.136;16.928;2022-08-01T14:10:58;3.90;;;3.20;;
59474;SDS011;45288;51.136;16.928;2022-08-01T14:13:24;4.13;;;3.33;;
59474;SDS011;45288;51.136;16.928;2022-08-01T14:15:50;4.40;;;3.20;;
59474;SDS011;45288;51.136;16.928;2022-08-01T14:18:16;3.60;;;3.30;;
59474;SDS011;45288;51.136;16.928;2022-08-01T14:20:42;3.50;;;3.20;;
59474;SDS011;45288;51.136;16.928;2022-08-01T14:23:08;5.78;;;3.35;;
59474;SDS011;45288;51.136;16.928;2022-08-01T14:25:34;3.13;;;2.92;;
59474;SDS011;45288;51.136;16.928;2022-08-01T14:27:59;3.50;;;2.80;;
59474;SDS011;45288;51.136;16.928;2022-08-01T14:30:25;2.10;;;2.00;;
59474;SDS011;45288;51.136;16.928;2022-08-01T14:32:50;2.00;;;1.90;;
59474;SDS011;45288;51.136;16.928;2022-08-01T14:35:16;4.00;;;2.10;;
59474;SDS011;45288;51.136;16.928;2022-08-01T14:37:42;2.20;;;2.00;;
59474;SDS011;45288;51.136;16.928;2022-08-01T14:40:08;2.50;;;2.30;;
59474;SDS011;45288;51.136;16.928;2022-08-01T14:42:37;2.80;;;2.40;;
59474;SDS011;45288;51.136;16.928;2022-08-01T14:45:03;4.00;;;2.50;;
59474;SDS011;45288;51.136;16.928;2022-08-01T14:47:34;3.00;;;2.70;;
59474;SDS011;45288;51.136;16.928;2022-08-01T14:50:00;2.67;;;2.47;;
59474;SDS011;45288;51.136;16.928;2022-08-01T14:52:26;2.90;;;2.70;;
59474;SDS011;45288;51.136;16.928;2022-08-01T14:54:52;3.17;;;2.87;;
59474;SDS011;45288;51.136;16.928;2022-08-01T14:57:18;4.00;;;2.70;;
59474;SDS011;45288;51.136;16.928;2022-08-01T14:59:43;2.80;;;2.60;;
59474;SDS011;45288;51.136;16.928;2022-08-01T15:02:09;2.50;;;2.30;;
59474;SDS011;45288;51.136;16.928;2022-08-01T15:04:36;2.80;;;2.60;;
59474;SDS011;45288;51.136;16.928;2022-08-01T15:07:02;2.83;;;2.37;;
59474;SDS011;45288;51.136;16.928;2022-08-01T15:09:28;2.45;;;2.25;;
59474;SDS011;45288;51.136;16.928;2022-08-01T15:11:54;2.63;;;2.40;;